sensor_id;sensor_type;location;lat;lon;timestamp;P1;durP1;ratioP1;P2;durP2;ratioP2
39094;SDS011;24840;47.508;19.376;2022-12-15T00:02:00;32.83;;;22.03;;
39094;SDS011;24840;47.508;19.376;2022-12-15T00:04:45;33.70;;;22.20;;
39094;SDS011;24840;47.508;19.376;2022-12-15T00:07:30;32.07;;;23.77;;
39094;SDS011;24840;47.508;19.376;2022-12-15T00:10:14;31.93;;;22.70;;
39094;SDS011;24840;47.508;19.376;2022-12-15T00:12:58;37.67;;;23.57;;
39094;SDS011;24840;47.508;19.376;2022-12-15T00:15:45;34.10;;;23.83;;
39094;SDS011;24840;47.508;19.376;2022-12-15T00:18:31;33.37;;;22.13;;
39094;SDS011;24840;47.508;19.376;2022-12-15T00:21:16;33.27;;;23.80;;
39094;SDS011;24840;47.508;19.376;2022-12-15T00:24:01;33.30;;;22.50;;
39094;SDS011;24840;47.508;19.376;2022-12-15T00:26:45;32.00;;;22.93;;
39094;SDS011;24840;47.508;19.376;2022-12-15T00:29:29;30.00;;;22.47;;
39094;SDS011;24840;47.508;19.376;2022-12-15T00:32:13;30.33;;;21.47;;
39094;SDS011;24840;47.508;19.376;2022-12-15T00:34:57;33.03;;;24.53;;
39094;SDS011;24840;47.508;19.376;2022-12-15T00:37:41;31.97;;;23.00;;
39094;SDS011;24840;47.508;19.376;2022-12-15T00:40:25;33.30;;;23.40;;
39094;SDS011;24840;47.508;19.376;2022-12-15T00:42:51;34.53;;;22.93;;
39094;SDS011;24840;47.508;19.376;2022-12-15T00:45:17;32.93;;;23.13;;
39094;SDS011;24840;47.508;19.376;2022-12-15T00:47:43;33.20;;;23.00;;
39094;SDS011;24840;47.508;19.376;2022-12-15T00:50:08;42.87;;;24.63;;
39094;SDS011;24840;47.508;19.376;2022-12-15T00:52:52;33.77;;;23.50;;
39094;SDS011;24840;47.508;19.376;2022-12-15T00:55:36;33.93;;;24.03;;
39094;SDS011;24840;47.508;19.376;2022-12-15T00:58:21;33.47;;;23.17;;
39094;SDS011;24840;47.508;19.376;2022-12-15T01:01:05;36.23;;;23.27;;
39094;SDS011;24840;47.508;19.376;2022-12-15T01:03:51;38.00;;;24.43;;
39094;SDS011;24840;47.508;19.376;2022-12-15T01:06:35;34.60;;;24.50;;
39094;SDS011;24840;47.508;19.376;2022-12-15T01:09:19;32.40;;;22.97;;
39094;SDS011;24840;47.508;19.376;2022-12-15T01:12:03;32.40;;;23.13;;
39094;SDS011;24840;47.508;19.376;2022-12-15T01:14:47;40.13;;;24.97;;
39094;SDS011;24840;47.508;19.376;2022-12-15T01:17:32;32.40;;;22.73;;
39094;SDS011;24840;47.508;19.376;2022-12-15T01:20:16;30.87;;;24.07;;
39094;SDS011;24840;47.508;19.376;2022-12-15T01:23:03;32.07;;;22.60;;
39094;SDS011;24840;47.508;19.376;2022-12-15T01:25:28;32.57;;;23.57;;
39094;SDS011;24840;47.508;19.376;2022-12-15T01:27:54;35.63;;;23.97;;
39094;SDS011;24840;47.508;19.376;2022-12-15T01:30:21;38.00;;;23.63;;
39094;SDS011;24840;47.508;19.376;2022-12-15T01:32:49;34.10;;;24.40;;
39094;SDS011;24840;47.508;19.376;2022-12-15T01:35:15;35.00;;;24.87;;
39094;SDS011;24840;47.508;19.376;2022-12-15T01:37:42;33.10;;;22.77;;
39094;SDS011;24840;47.508;19.376;2022-12-15T01:40:10;33.60;;;22.67;;
39094;SDS011;24840;47.508;19.376;2022-12-15T01:42:55;52.80;;;29.57;;
39094;SDS011;24840;47.508;19.376;2022-12-15T01:48:00;33.75;;;25.20;;
39094;SDS011;24840;47.508;19.376;2022-12-15T01:50:29;38.73;;;25.87;;
39094;SDS011;24840;47.508;19.376;2022-12-15T01:52:57;39.77;;;27.00;;
39094;SDS011;24840;47.508;19.376;2022-12-15T01:55:23;38.57;;;26.60;;
39094;SDS011;24840;47.508;19.376;2022-12-15T01:57:53;43.30;;;28.17;;
39094;SDS011;24840;47.508;19.376;2022-12-15T02:00:23;41.03;;;26.20;;
39094;SDS011;24840;47.508;19.376;2022-12-15T02:02:48;51.17;;;28.87;;
39094;SDS011;24840;47.508;19.376;2022-12-15T02:05:15;41.23;;;27.27;;
39094;SDS011;24840;47.508;19.376;2022-12-15T02:07:41;42.70;;;27.53;;
39094;SDS011;24840;47.508;19.376;2022-12-15T02:10:07;41.37;;;28.57;;
39094;SDS011;24840;47.508;19.376;2022-12-15T02:15:38;46.40;;;30.37;;
39094;SDS011;24840;47.508;19.376;2022-12-15T02:19:15;54.73;;;34.67;;
39094;SDS011;24840;47.508;19.376;2022-12-15T02:32:10;42.40;;;29.17;;
39094;SDS011;24840;47.508;19.376;2022-12-15T02:34:40;39.87;;;27.13;;
39094;SDS011;24840;47.508;19.376;2022-12-15T02:37:16;42.63;;;29.17;;
39094;SDS011;24840;47.508;19.376;2022-12-15T02:42:29;34.90;;;24.97;;
39094;SDS011;24840;47.508;19.376;2022-12-15T02:57:37;42.30;;;28.57;;
39094;SDS011;24840;47.508;19.376;2022-12-15T03:00:17;41.23;;;28.17;;
39094;SDS011;24840;47.508;19.376;2022-12-15T03:02:43;41.37;;;27.37;;
39094;SDS011;24840;47.508;19.376;2022-12-15T03:05:12;43.17;;;28.73;;
39094;SDS011;24840;47.508;19.376;2022-12-15T03:07:40;42.83;;;28.67;;
39094;SDS011;24840;47.508;19.376;2022-12-15T03:10:07;55.53;;;32.77;;
39094;SDS011;24840;47.508;19.376;2022-12-15T03:12:35;51.17;;;31.33;;
39094;SDS011;24840;47.508;19.376;2022-12-15T03:15:01;42.33;;;29.03;;
39094;SDS011;24840;47.508;19.376;2022-12-15T03:17:26;43.00;;;28.37;;
39094;SDS011;24840;47.508;19.376;2022-12-15T03:19:52;46.03;;;30.73;;
39094;SDS011;24840;47.508;19.376;2022-12-15T03:22:18;50.80;;;31.57;;
39094;SDS011;24840;47.508;19.376;2022-12-15T03:24:44;46.53;;;32.67;;
39094;SDS011;24840;47.508;19.376;2022-12-15T03:27:10;46.60;;;31.43;;
39094;SDS011;24840;47.508;19.376;2022-12-15T03:29:35;48.73;;;32.53;;
39094;SDS011;24840;47.508;19.376;2022-12-15T03:32:01;49.27;;;32.17;;
39094;SDS011;24840;47.508;19.376;2022-12-15T03:34:27;51.00;;;31.90;;
39094;SDS011;24840;47.508;19.376;2022-12-15T03:36:53;43.40;;;30.83;;
39094;SDS011;24840;47.508;19.376;2022-12-15T03:39:19;40.47;;;27.83;;
39094;SDS011;24840;47.508;19.376;2022-12-15T03:41:44;48.47;;;30.67;;
39094;SDS011;24840;47.508;19.376;2022-12-15T03:44:10;48.33;;;30.80;;
39094;SDS011;24840;47.508;19.376;2022-12-15T03:46:36;48.67;;;31.37;;
39094;SDS011;24840;47.508;19.376;2022-12-15T03:49:02;49.30;;;32.27;;
39094;SDS011;24840;47.508;19.376;2022-12-15T03:51:27;48.73;;;31.53;;
39094;SDS011;24840;47.508;19.376;2022-12-15T03:53:53;46.63;;;33.37;;
39094;SDS011;24840;47.508;19.376;2022-12-15T03:56:19;45.43;;;32.97;;
39094;SDS011;24840;47.508;19.376;2022-12-15T03:58:45;49.83;;;34.77;;
39094;SDS011;24840;47.508;19.376;2022-12-15T04:01:11;46.63;;;32.20;;
39094;SDS011;24840;47.508;19.376;2022-12-15T04:03:57;46.63;;;32.07;;
39094;SDS011;24840;47.508;19.376;2022-12-15T04:06:24;47.93;;;31.87;;
39094;SDS011;24840;47.508;19.376;2022-12-15T04:08:50;45.33;;;31.27;;
39094;SDS011;24840;47.508;19.376;2022-12-15T04:11:16;46.93;;;30.80;;
39094;SDS011;24840;47.508;19.376;2022-12-15T04:13:42;45.10;;;30.80;;
39094;SDS011;24840;47.508;19.376;2022-12-15T04:16:08;48.93;;;30.90;;
39094;SDS011;24840;47.508;19.376;2022-12-15T04:18:34;49.30;;;30.60;;
39094;SDS011;24840;47.508;19.376;2022-12-15T04:21:00;45.67;;;30.23;;
39094;SDS011;24840;47.508;19.376;2022-12-15T04:23:26;46.87;;;31.23;;
39094;SDS011;24840;47.508;19.376;2022-12-15T04:25:51;46.57;;;30.50;;
39094;SDS011;24840;47.508;19.376;2022-12-15T04:28:35;45.37;;;30.40;;
39094;SDS011;24840;47.508;19.376;2022-12-15T04:31:27;43.10;;;29.53;;
39094;SDS011;24840;47.508;19.376;2022-12-15T04:34:15;45.27;;;29.07;;
39094;SDS011;24840;47.508;19.376;2022-12-15T04:37:01;48.20;;;30.87;;
39094;SDS011;24840;47.508;19.376;2022-12-15T04:39:47;45.43;;;29.93;;
39094;SDS011;24840;47.508;19.376;2022-12-15T04:42:33;48.53;;;31.83;;
39094;SDS011;24840;47.508;19.376;2022-12-15T04:45:20;45.80;;;30.93;;
39094;SDS011;24840;47.508;19.376;2022-12-15T04:48:06;50.97;;;31.37;;
39094;SDS011;24840;47.508;19.376;2022-12-15T04:50:51;47.87;;;29.77;;
39094;SDS011;24840;47.508;19.376;2022-12-15T04:53:35;45.07;;;29.03;;
39094;SDS011;24840;47.508;19.376;2022-12-15T04:56:19;50.90;;;32.97;;
39094;SDS011;24840;47.508;19.376;2022-12-15T04:59:03;48.70;;;30.53;;
39094;SDS011;24840;47.508;19.376;2022-12-15T05:01:47;54.20;;;31.30;;
39094;SDS011;24840;47.508;19.376;2022-12-15T05:04:32;46.93;;;30.87;;
39094;SDS011;24840;47.508;19.376;2022-12-15T05:07:16;45.07;;;30.60;;
39094;SDS011;24840;47.508;19.376;2022-12-15T05:10:01;48.87;;;29.33;;
39094;SDS011;24840;47.508;19.376;2022-12-15T05:12:46;51.77;;;32.30;;
39094;SDS011;24840;47.508;19.376;2022-12-15T05:15:31;47.87;;;30.87;;
39094;SDS011;24840;47.508;19.376;2022-12-15T05:18:16;48.43;;;31.47;;
39094;SDS011;24840;47.508;19.376;2022-12-15T05:21:01;46.93;;;31.63;;
39094;SDS011;24840;47.508;19.376;2022-12-15T05:23:45;51.23;;;33.00;;
39094;SDS011;24840;47.508;19.376;2022-12-15T05:26:29;49.33;;;31.00;;
39094;SDS011;24840;47.508;19.376;2022-12-15T05:29:13;54.90;;;32.13;;
39094;SDS011;24840;47.508;19.376;2022-12-15T05:31:57;49.67;;;31.70;;
39094;SDS011;24840;47.508;19.376;2022-12-15T05:34:24;48.70;;;32.03;;
39094;SDS011;24840;47.508;19.376;2022-12-15T05:36:55;52.00;;;31.53;;
39094;SDS011;24840;47.508;19.376;2022-12-15T05:39:23;49.00;;;31.30;;
39094;SDS011;24840;47.508;19.376;2022-12-15T05:41:50;54.10;;;32.40;;
39094;SDS011;24840;47.508;19.376;2022-12-15T05:44:16;59.60;;;35.23;;
39094;SDS011;24840;47.508;19.376;2022-12-15T05:46:42;59.97;;;33.20;;
39094;SDS011;24840;47.508;19.376;2022-12-15T05:49:08;55.17;;;33.67;;
39094;SDS011;24840;47.508;19.376;2022-12-15T05:51:38;57.57;;;33.07;;
39094;SDS011;24840;47.508;19.376;2022-12-15T05:54:05;56.47;;;34.03;;
39094;SDS011;24840;47.508;19.376;2022-12-15T05:56:32;57.00;;;34.43;;
39094;SDS011;24840;47.508;19.376;2022-12-15T05:58:58;60.87;;;34.93;;
39094;SDS011;24840;47.508;19.376;2022-12-15T06:01:24;57.00;;;33.87;;
39094;SDS011;24840;47.508;19.376;2022-12-15T06:03:51;54.37;;;31.87;;
39094;SDS011;24840;47.508;19.376;2022-12-15T06:06:17;59.67;;;35.20;;
39094;SDS011;24840;47.508;19.376;2022-12-15T06:08:43;62.33;;;35.77;;
39094;SDS011;24840;47.508;19.376;2022-12-15T06:11:10;58.10;;;32.93;;
39094;SDS011;24840;47.508;19.376;2022-12-15T06:13:37;58.30;;;37.13;;
39094;SDS011;24840;47.508;19.376;2022-12-15T06:16:05;62.43;;;35.90;;
39094;SDS011;24840;47.508;19.376;2022-12-15T06:18:35;57.27;;;36.83;;
39094;SDS011;24840;47.508;19.376;2022-12-15T06:21:06;55.40;;;34.23;;
39094;SDS011;24840;47.508;19.376;2022-12-15T06:23:33;48.72;;;27.88;;
39094;SDS011;24840;47.508;19.376;2022-12-15T06:26:06;165.37;;;41.90;;
39094;SDS011;24840;47.508;19.376;2022-12-15T06:28:46;61.23;;;35.27;;
39094;SDS011;24840;47.508;19.376;2022-12-15T06:31:13;64.13;;;35.03;;
39094;SDS011;24840;47.508;19.376;2022-12-15T06:33:41;66.83;;;33.83;;
39094;SDS011;24840;47.508;19.376;2022-12-15T06:36:09;64.37;;;37.13;;
39094;SDS011;24840;47.508;19.376;2022-12-15T06:38:38;64.13;;;35.07;;
39094;SDS011;24840;47.508;19.376;2022-12-15T06:41:07;63.07;;;35.53;;
39094;SDS011;24840;47.508;19.376;2022-12-15T06:43:35;63.87;;;35.57;;
39094;SDS011;24840;47.508;19.376;2022-12-15T06:46:00;55.00;;;34.50;;
39094;SDS011;24840;47.508;19.376;2022-12-15T06:48:27;62.70;;;35.93;;
39094;SDS011;24840;47.508;19.376;2022-12-15T06:50:53;60.40;;;32.73;;
39094;SDS011;24840;47.508;19.376;2022-12-15T06:53:20;69.37;;;40.67;;
39094;SDS011;24840;47.508;19.376;2022-12-15T06:55:48;60.57;;;35.57;;
39094;SDS011;24840;47.508;19.376;2022-12-15T06:58:14;62.43;;;35.07;;
39094;SDS011;24840;47.508;19.376;2022-12-15T07:00:41;61.27;;;35.37;;
39094;SDS011;24840;47.508;19.376;2022-12-15T07:03:15;71.83;;;37.30;;
39094;SDS011;24840;47.508;19.376;2022-12-15T07:05:42;69.60;;;38.87;;
39094;SDS011;24840;47.508;19.376;2022-12-15T07:08:12;87.63;;;45.50;;
39094;SDS011;24840;47.508;19.376;2022-12-15T07:10:40;66.80;;;37.53;;
39094;SDS011;24840;47.508;19.376;2022-12-15T07:13:11;64.93;;;36.23;;
39094;SDS011;24840;47.508;19.376;2022-12-15T07:15:37;67.87;;;36.10;;
39094;SDS011;24840;47.508;19.376;2022-12-15T07:18:04;64.90;;;35.93;;
39094;SDS011;24840;47.508;19.376;2022-12-15T07:20:30;68.33;;;39.10;;
39094;SDS011;24840;47.508;19.376;2022-12-15T07:22:56;72.83;;;38.00;;
39094;SDS011;24840;47.508;19.376;2022-12-15T07:25:22;65.93;;;36.37;;
39094;SDS011;24840;47.508;19.376;2022-12-15T07:27:48;70.67;;;36.13;;
39094;SDS011;24840;47.508;19.376;2022-12-15T07:30:14;69.90;;;37.77;;
39094;SDS011;24840;47.508;19.376;2022-12-15T07:32:41;67.57;;;38.43;;
39094;SDS011;24840;47.508;19.376;2022-12-15T07:35:08;71.83;;;37.13;;
39094;SDS011;24840;47.508;19.376;2022-12-15T07:37:35;70.63;;;39.50;;
39094;SDS011;24840;47.508;19.376;2022-12-15T07:40:01;61.13;;;34.23;;
39094;SDS011;24840;47.508;19.376;2022-12-15T07:42:28;62.70;;;36.73;;
39094;SDS011;24840;47.508;19.376;2022-12-15T07:44:54;59.97;;;35.27;;
39094;SDS011;24840;47.508;19.376;2022-12-15T07:47:20;69.00;;;36.30;;
39094;SDS011;24840;47.508;19.376;2022-12-15T07:49:46;55.03;;;33.20;;
39094;SDS011;24840;47.508;19.376;2022-12-15T07:52:12;59.20;;;34.73;;
39094;SDS011;24840;47.508;19.376;2022-12-15T07:54:38;53.90;;;33.43;;
39094;SDS011;24840;47.508;19.376;2022-12-15T07:57:04;57.63;;;34.00;;
39094;SDS011;24840;47.508;19.376;2022-12-15T07:59:32;62.37;;;35.03;;
39094;SDS011;24840;47.508;19.376;2022-12-15T08:01:58;67.67;;;37.40;;
39094;SDS011;24840;47.508;19.376;2022-12-15T08:04:25;67.73;;;36.03;;
39094;SDS011;24840;47.508;19.376;2022-12-15T08:06:54;58.40;;;33.63;;
39094;SDS011;24840;47.508;19.376;2022-12-15T08:09:20;62.20;;;34.20;;
39094;SDS011;24840;47.508;19.376;2022-12-15T08:11:46;61.03;;;31.80;;
39094;SDS011;24840;47.508;19.376;2022-12-15T08:14:12;64.77;;;34.87;;
39094;SDS011;24840;47.508;19.376;2022-12-15T08:16:39;68.13;;;35.50;;
39094;SDS011;24840;47.508;19.376;2022-12-15T08:19:05;89.40;;;36.03;;
39094;SDS011;24840;47.508;19.376;2022-12-15T08:21:31;64.93;;;33.10;;
39094;SDS011;24840;47.508;19.376;2022-12-15T08:23:58;56.73;;;31.97;;
39094;SDS011;24840;47.508;19.376;2022-12-15T08:26:25;62.40;;;33.37;;
39094;SDS011;24840;47.508;19.376;2022-12-15T08:28:51;62.90;;;33.57;;
39094;SDS011;24840;47.508;19.376;2022-12-15T08:31:18;59.73;;;34.47;;
39094;SDS011;24840;47.508;19.376;2022-12-15T08:33:46;55.70;;;32.77;;
39094;SDS011;24840;47.508;19.376;2022-12-15T08:36:13;59.30;;;32.90;;
39094;SDS011;24840;47.508;19.376;2022-12-15T08:38:41;56.83;;;33.73;;
39094;SDS011;24840;47.508;19.376;2022-12-15T08:41:12;69.13;;;34.97;;
39094;SDS011;24840;47.508;19.376;2022-12-15T08:43:47;66.57;;;34.77;;
39094;SDS011;24840;47.508;19.376;2022-12-15T08:46:14;61.57;;;32.37;;
39094;SDS011;24840;47.508;19.376;2022-12-15T08:48:40;62.37;;;34.90;;
39094;SDS011;24840;47.508;19.376;2022-12-15T08:51:06;65.93;;;33.50;;
39094;SDS011;24840;47.508;19.376;2022-12-15T08:53:33;61.50;;;33.37;;
39094;SDS011;24840;47.508;19.376;2022-12-15T08:56:06;60.90;;;35.30;;
39094;SDS011;24840;47.508;19.376;2022-12-15T08:58:33;62.20;;;33.13;;
39094;SDS011;24840;47.508;19.376;2022-12-15T09:01:00;69.63;;;35.97;;
39094;SDS011;24840;47.508;19.376;2022-12-15T09:03:26;68.27;;;35.83;;
39094;SDS011;24840;47.508;19.376;2022-12-15T09:05:52;58.63;;;32.87;;
39094;SDS011;24840;47.508;19.376;2022-12-15T09:08:17;66.90;;;36.80;;
39094;SDS011;24840;47.508;19.376;2022-12-15T09:10:43;68.73;;;35.63;;
39094;SDS011;24840;47.508;19.376;2022-12-15T09:13:09;60.07;;;33.43;;
39094;SDS011;24840;47.508;19.376;2022-12-15T09:15:34;64.07;;;34.63;;
39094;SDS011;24840;47.508;19.376;2022-12-15T09:18:00;64.40;;;34.90;;
39094;SDS011;24840;47.508;19.376;2022-12-15T09:20:26;59.33;;;32.47;;
39094;SDS011;24840;47.508;19.376;2022-12-15T09:22:51;57.63;;;32.30;;
39094;SDS011;24840;47.508;19.376;2022-12-15T09:25:17;65.87;;;35.57;;
39094;SDS011;24840;47.508;19.376;2022-12-15T09:27:43;66.47;;;33.97;;
39094;SDS011;24840;47.508;19.376;2022-12-15T09:30:08;54.00;;;31.60;;
39094;SDS011;24840;47.508;19.376;2022-12-15T09:32:34;58.40;;;34.53;;
39094;SDS011;24840;47.508;19.376;2022-12-15T09:35:00;65.03;;;34.67;;
39094;SDS011;24840;47.508;19.376;2022-12-15T09:37:26;69.73;;;35.90;;
39094;SDS011;24840;47.508;19.376;2022-12-15T09:39:51;67.77;;;36.43;;
39094;SDS011;24840;47.508;19.376;2022-12-15T09:42:24;62.53;;;35.50;;
39094;SDS011;24840;47.508;19.376;2022-12-15T09:44:57;57.03;;;33.43;;
39094;SDS011;24840;47.508;19.376;2022-12-15T09:47:33;56.95;;;34.13;;
39094;SDS011;24840;47.508;19.376;2022-12-15T09:50:08;50.38;;;26.98;;
39094;SDS011;24840;47.508;19.376;2022-12-15T09:52:43;62.83;;;33.90;;
39094;SDS011;24840;47.508;19.376;2022-12-15T09:55:21;63.73;;;33.43;;
39094;SDS011;24840;47.508;19.376;2022-12-15T09:57:52;64.97;;;34.67;;
39094;SDS011;24840;47.508;19.376;2022-12-15T10:03:21;47.90;;;26.05;;
39094;SDS011;24840;47.508;19.376;2022-12-15T10:06:06;67.55;;;34.45;;
39094;SDS011;24840;47.508;19.376;2022-12-15T10:08:39;62.87;;;32.73;;
39094;SDS011;24840;47.508;19.376;2022-12-15T10:13:50;55.73;;;32.00;;
39094;SDS011;24840;47.508;19.376;2022-12-15T10:16:21;54.67;;;32.00;;
39094;SDS011;24840;47.508;19.376;2022-12-15T10:21:22;59.97;;;34.90;;
39094;SDS011;24840;47.508;19.376;2022-12-15T10:23:52;59.97;;;33.67;;
39094;SDS011;24840;47.508;19.376;2022-12-15T10:26:22;59.07;;;35.07;;
39094;SDS011;24840;47.508;19.376;2022-12-15T10:29:00;64.37;;;35.47;;
39094;SDS011;24840;47.508;19.376;2022-12-15T10:31:35;53.93;;;33.33;;
39094;SDS011;24840;47.508;19.376;2022-12-15T10:36:49;55.23;;;31.87;;
39094;SDS011;24840;47.508;19.376;2022-12-15T10:39:16;51.57;;;30.20;;
39094;SDS011;24840;47.508;19.376;2022-12-15T10:41:42;58.97;;;33.17;;
39094;SDS011;24840;47.508;19.376;2022-12-15T10:44:30;60.30;;;32.33;;
39094;SDS011;24840;47.508;19.376;2022-12-15T10:47:06;52.45;;;30.92;;
39094;SDS011;24840;47.508;19.376;2022-12-15T10:49:34;56.77;;;33.37;;
39094;SDS011;24840;47.508;19.376;2022-12-15T10:52:00;57.87;;;32.40;;
39094;SDS011;24840;47.508;19.376;2022-12-15T10:54:29;57.67;;;34.63;;
39094;SDS011;24840;47.508;19.376;2022-12-15T10:57:02;60.20;;;32.93;;
39094;SDS011;24840;47.508;19.376;2022-12-15T10:59:40;57.23;;;32.83;;
39094;SDS011;24840;47.508;19.376;2022-12-15T11:02:40;54.47;;;32.27;;
39094;SDS011;24840;47.508;19.376;2022-12-15T11:07:49;54.63;;;32.97;;
39094;SDS011;24840;47.508;19.376;2022-12-15T11:15:48;61.97;;;31.42;;
39094;SDS011;24840;47.508;19.376;2022-12-15T11:21:01;63.00;;;34.87;;
39094;SDS011;24840;47.508;19.376;2022-12-15T11:23:47;60.42;;;32.97;;
39094;SDS011;24840;47.508;19.376;2022-12-15T11:26:22;56.87;;;30.57;;
39094;SDS011;24840;47.508;19.376;2022-12-15T11:31:39;53.47;;;31.60;;
39094;SDS011;24840;47.508;19.376;2022-12-15T11:34:14;61.20;;;32.57;;
39094;SDS011;24840;47.508;19.376;2022-12-15T11:37:32;59.90;;;33.93;;
39094;SDS011;24840;47.508;19.376;2022-12-15T11:46:00;71.77;;;34.47;;
39094;SDS011;24840;47.508;19.376;2022-12-15T12:02:37;39.90;;;25.47;;
39094;SDS011;24840;47.508;19.376;2022-12-15T12:17:08;45.83;;;25.13;;
39094;SDS011;24840;47.508;19.376;2022-12-15T12:19:54;41.17;;;24.77;;
39094;SDS011;24840;47.508;19.376;2022-12-15T12:22:48;44.10;;;26.10;;
39094;SDS011;24840;47.508;19.376;2022-12-15T12:25:18;43.57;;;24.93;;
39094;SDS011;24840;47.508;19.376;2022-12-15T12:28:04;38.93;;;25.37;;
39094;SDS011;24840;47.508;19.376;2022-12-15T12:30:47;39.30;;;26.57;;
39094;SDS011;24840;47.508;19.376;2022-12-15T12:36:41;58.50;;;37.77;;
39094;SDS011;24840;47.508;19.376;2022-12-15T12:39:12;48.43;;;26.37;;
39094;SDS011;24840;47.508;19.376;2022-12-15T12:41:54;66.10;;;39.80;;
39094;SDS011;24840;47.508;19.376;2022-12-15T12:44:36;51.60;;;29.90;;
39094;SDS011;24840;47.508;19.376;2022-12-15T12:47:13;39.43;;;24.10;;
39094;SDS011;24840;47.508;19.376;2022-12-15T12:49:52;40.40;;;25.40;;
39094;SDS011;24840;47.508;19.376;2022-12-15T12:52:23;39.60;;;25.00;;
39094;SDS011;24840;47.508;19.376;2022-12-15T12:54:59;48.83;;;27.90;;
39094;SDS011;24840;47.508;19.376;2022-12-15T12:57:47;45.43;;;27.07;;
39094;SDS011;24840;47.508;19.376;2022-12-15T13:05:29;44.03;;;27.00;;
39094;SDS011;24840;47.508;19.376;2022-12-15T13:10:34;42.70;;;25.33;;
39094;SDS011;24840;47.508;19.376;2022-12-15T13:13:33;53.60;;;24.70;;
39094;SDS011;24840;47.508;19.376;2022-12-15T13:22:20;43.10;;;28.33;;
39094;SDS011;24840;47.508;19.376;2022-12-15T13:29:36;39.97;;;25.17;;
39094;SDS011;24840;47.508;19.376;2022-12-15T13:32:33;62.97;;;25.27;;
39094;SDS011;24840;47.508;19.376;2022-12-15T13:35:02;39.40;;;24.27;;
39094;SDS011;24840;47.508;19.376;2022-12-15T13:42:59;46.93;;;26.77;;
39094;SDS011;24840;47.508;19.376;2022-12-15T13:48:11;54.57;;;26.87;;
39094;SDS011;24840;47.508;19.376;2022-12-15T13:53:24;41.17;;;26.27;;
39094;SDS011;24840;47.508;19.376;2022-12-15T13:55:53;47.23;;;26.90;;
39094;SDS011;24840;47.508;19.376;2022-12-15T13:58:27;46.73;;;27.33;;
39094;SDS011;24840;47.508;19.376;2022-12-15T14:01:01;42.87;;;27.70;;
39094;SDS011;24840;47.508;19.376;2022-12-15T14:03:29;43.13;;;28.10;;
39094;SDS011;24840;47.508;19.376;2022-12-15T14:05:55;43.07;;;26.90;;
39094;SDS011;24840;47.508;19.376;2022-12-15T14:08:23;41.33;;;27.33;;
39094;SDS011;24840;47.508;19.376;2022-12-15T14:10:57;43.67;;;26.37;;
39094;SDS011;24840;47.508;19.376;2022-12-15T14:13:29;45.77;;;27.13;;
39094;SDS011;24840;47.508;19.376;2022-12-15T14:16:00;46.07;;;28.93;;
39094;SDS011;24840;47.508;19.376;2022-12-15T14:18:33;54.03;;;32.70;;
39094;SDS011;24840;47.508;19.376;2022-12-15T14:21:00;48.27;;;29.23;;
39094;SDS011;24840;47.508;19.376;2022-12-15T14:23:40;55.33;;;32.00;;
39094;SDS011;24840;47.508;19.376;2022-12-15T14:26:09;45.30;;;32.20;;
39094;SDS011;24840;47.508;19.376;2022-12-15T14:28:41;50.70;;;32.23;;
39094;SDS011;24840;47.508;19.376;2022-12-15T14:31:19;41.53;;;25.77;;
39094;SDS011;24840;47.508;19.376;2022-12-15T14:33:47;47.47;;;32.67;;
39094;SDS011;24840;47.508;19.376;2022-12-15T14:36:17;60.00;;;35.63;;
39094;SDS011;24840;47.508;19.376;2022-12-15T14:43:54;57.57;;;36.63;;
39094;SDS011;24840;47.508;19.376;2022-12-15T14:46:25;55.37;;;34.53;;
39094;SDS011;24840;47.508;19.376;2022-12-15T14:48:56;55.97;;;35.17;;
39094;SDS011;24840;47.508;19.376;2022-12-15T14:51:31;56.43;;;36.57;;
39094;SDS011;24840;47.508;19.376;2022-12-15T14:57:00;58.67;;;35.53;;
39094;SDS011;24840;47.508;19.376;2022-12-15T14:59:29;52.63;;;33.53;;
39094;SDS011;24840;47.508;19.376;2022-12-15T15:02:20;58.23;;;37.57;;
39094;SDS011;24840;47.508;19.376;2022-12-15T15:07:32;62.47;;;36.87;;
39094;SDS011;24840;47.508;19.376;2022-12-15T15:10:01;76.00;;;44.70;;
39094;SDS011;24840;47.508;19.376;2022-12-15T15:12:43;69.57;;;40.93;;
39094;SDS011;24840;47.508;19.376;2022-12-15T15:15:14;71.37;;;41.33;;
39094;SDS011;24840;47.508;19.376;2022-12-15T15:20:18;60.73;;;36.77;;
39094;SDS011;24840;47.508;19.376;2022-12-15T15:33:09;64.23;;;36.50;;
39094;SDS011;24840;47.508;19.376;2022-12-15T15:35:36;61.33;;;37.13;;
39094;SDS011;24840;47.508;19.376;2022-12-15T15:40:47;64.63;;;41.37;;
39094;SDS011;24840;47.508;19.376;2022-12-15T15:43:17;68.80;;;40.67;;
39094;SDS011;24840;47.508;19.376;2022-12-15T15:45:43;58.53;;;37.90;;
39094;SDS011;24840;47.508;19.376;2022-12-15T15:48:31;60.20;;;38.43;;
39094;SDS011;24840;47.508;19.376;2022-12-15T15:50:57;59.47;;;39.47;;
39094;SDS011;24840;47.508;19.376;2022-12-15T15:53:24;66.87;;;40.87;;
39094;SDS011;24840;47.508;19.376;2022-12-15T15:55:51;66.07;;;41.93;;
39094;SDS011;24840;47.508;19.376;2022-12-15T15:58:19;60.13;;;39.00;;
39094;SDS011;24840;47.508;19.376;2022-12-15T16:00:44;68.53;;;41.80;;
39094;SDS011;24840;47.508;19.376;2022-12-15T16:03:10;65.33;;;41.10;;
39094;SDS011;24840;47.508;19.376;2022-12-15T16:05:37;69.83;;;47.20;;
39094;SDS011;24840;47.508;19.376;2022-12-15T16:08:03;61.20;;;41.37;;
39094;SDS011;24840;47.508;19.376;2022-12-15T16:10:30;62.97;;;38.47;;
39094;SDS011;24840;47.508;19.376;2022-12-15T16:12:56;60.23;;;38.70;;
39094;SDS011;24840;47.508;19.376;2022-12-15T16:15:28;60.47;;;38.27;;
39094;SDS011;24840;47.508;19.376;2022-12-15T16:17:58;63.30;;;39.07;;
39094;SDS011;24840;47.508;19.376;2022-12-15T16:20:27;61.93;;;39.03;;
39094;SDS011;24840;47.508;19.376;2022-12-15T16:22:56;64.27;;;41.90;;
39094;SDS011;24840;47.508;19.376;2022-12-15T16:27:56;59.80;;;37.88;;
39094;SDS011;24840;47.508;19.376;2022-12-15T16:30:23;58.33;;;38.37;;
39094;SDS011;24840;47.508;19.376;2022-12-15T16:32:50;55.60;;;38.70;;
39094;SDS011;24840;47.508;19.376;2022-12-15T16:35:17;53.27;;;36.87;;
39094;SDS011;24840;47.508;19.376;2022-12-15T16:37:43;55.93;;;39.90;;
39094;SDS011;24840;47.508;19.376;2022-12-15T16:42:46;59.13;;;40.83;;
39094;SDS011;24840;47.508;19.376;2022-12-15T16:45:21;61.33;;;40.67;;
39094;SDS011;24840;47.508;19.376;2022-12-15T16:47:48;89.97;;;59.63;;
39094;SDS011;24840;47.508;19.376;2022-12-15T16:50:16;68.60;;;45.77;;
39094;SDS011;24840;47.508;19.376;2022-12-15T16:52:49;57.47;;;40.33;;
39094;SDS011;24840;47.508;19.376;2022-12-15T16:57:46;55.97;;;38.63;;
39094;SDS011;24840;47.508;19.376;2022-12-15T17:00:17;56.20;;;37.00;;
39094;SDS011;24840;47.508;19.376;2022-12-15T17:05:10;50.87;;;35.73;;
39094;SDS011;24840;47.508;19.376;2022-12-15T17:07:36;62.07;;;40.30;;
39094;SDS011;24840;47.508;19.376;2022-12-15T17:10:03;73.43;;;51.30;;
39094;SDS011;24840;47.508;19.376;2022-12-15T17:12:29;59.97;;;40.33;;
39094;SDS011;24840;47.508;19.376;2022-12-15T17:14:56;57.63;;;40.20;;